Time;durP1;ratioP1;P1;durP2;ratioP2;P2;SDS_P1;SDS_P2;PMS_P1;PMS_P2;Temp;Humidity;BMP_temperature;BMP_pressure;BME280_temperature;BME280_humidity;BME280_pressure;Samples;Min_cycle;Max_cycle;Signal;HPM_P1;HPM_P2
2023/07/29 00:00:42;;;;;;;1008.73;900.43;;;18.20;99.90;;;;;;4987494;28;20569;-63
2023/07/29 00:03:09;;;;;;;1007.67;900.37;;;18.20;99.90;;;;;;4986327;28;20863;-63
2023/07/29 00:05:36;;;;;;;1008.20;900.77;;;18.10;99.90;;;;;;4987633;28;20452;-63
2023/07/29 00:08:02;;;;;;;1012.27;904.73;;;18.10;99.90;;;;;;4988551;28;20454;-63
2023/07/29 00:10:30;;;;;;;992.03;885.97;;;18.00;99.90;;;;;;4979495;28;20448;-62
2023/07/29 00:12:56;;;;;;;1002.77;896.50;;;18.10;99.90;;;;;;4977835;28;20490;-63
2023/07/29 00:15:23;;;;;;;1008.40;901.80;;;17.90;99.90;;;;;;4985673;28;20951;-63
2023/07/29 00:17:51;;;;;;;1005.43;898.10;;;17.90;99.90;;;;;;4988722;28;20447;-63
2023/07/29 00:20:18;;;;;;;1009.83;902.37;;;17.80;99.90;;;;;;4984772;28;20467;-63
2023/07/29 00:22:45;;;;;;;994.20;887.63;;;17.80;99.90;;;;;;4986941;28;20502;-63
2023/07/29 00:25:12;;;;;;;1007.67;900.00;;;17.70;99.90;;;;;;4984657;28;20456;-63
2023/07/29 00:27:39;;;;;;;995.50;888.30;;;17.60;99.90;;;;;;4995625;28;20458;-63
2023/07/29 00:30:08;;;;;;;990.80;883.70;;;17.50;99.90;;;;;;4979737;28;20947;-63
2023/07/29 00:32:36;;;;;;;996.17;889.07;;;17.50;99.90;;;;;;4994600;28;20458;-63
2023/07/29 00:35:05;;;;;;;988.90;881.37;;;17.40;99.90;;;;;;4980522;28;20459;-63
2023/07/29 00:37:31;;;;;;;1004.53;895.67;;;17.40;99.90;;;;;;4986100;28;20451;-63
2023/07/29 00:39:59;;;;;;;994.97;886.57;;;17.40;99.90;;;;;;4989886;28;20478;-63
2023/07/29 00:42:25;;;;;;;982.10;875.90;;;17.40;99.90;;;;;;4979591;28;20825;-63
2023/07/29 00:44:52;;;;;;;990.90;883.90;;;17.40;99.90;;;;;;4991709;28;20480;-62
2023/07/29 00:47:21;;;;;;;993.60;886.00;;;17.40;99.90;;;;;;4980782;28;20461;-63
2023/07/29 00:49:48;;;;;;;997.67;889.80;;;17.40;99.90;;;;;;4975662;28;20479;-63
2023/07/29 00:52:16;;;;;;;999.00;890.77;;;17.40;99.90;;;;;;4976134;28;20456;-63
2023/07/29 00:54:43;;;;;;;996.23;888.50;;;17.60;99.90;;;;;;4988317;28;20450;-62
2023/07/29 00:57:13;;;;;;;1008.07;899.50;;;17.60;99.90;;;;;;4979188;28;20838;-63
2023/07/29 00:59:40;;;;;;;994.00;886.47;;;17.60;99.90;;;;;;4979034;28;20993;-63
2023/07/29 01:02:08;;;;;;;1000.77;893.07;;;17.70;99.90;;;;;;4990569;28;20457;-63
2023/07/29 01:04:34;;;;;;;1010.10;902.07;;;17.70;99.90;;;;;;4980073;28;20805;-63
2023/07/29 01:07:10;;;;;;;996.03;888.67;;;17.70;99.90;;;;;;4983160;28;20550;-62
2023/07/29 01:09:48;;;;;;;997.23;890.53;;;17.70;99.90;;;;;;4979719;28;20519;-63
2023/07/29 01:12:22;;;;;;;994.87;888.20;;;17.60;99.90;;;;;;4987001;28;20454;-63
2023/07/29 01:15:00;;;;;;;992.47;885.17;;;17.60;99.90;;;;;;4990539;28;20458;-63
2023/07/29 01:17:33;;;;;;;994.63;887.67;;;17.60;99.90;;;;;;4979538;28;20462;-63
2023/07/29 01:20:05;;;;;;;988.27;882.50;;;17.60;99.90;;;;;;4990803;28;20477;-63
2023/07/29 01:22:33;;;;;;;999.23;892.33;;;17.50;99.90;;;;;;4989452;28;20461;-62
2023/07/29 01:25:01;;;;;;;1001.87;894.40;;;17.50;99.90;;;;;;4987568;28;20482;-63
2023/07/29 01:27:28;;;;;;;1015.47;906.00;;;17.50;99.90;;;;;;4987306;28;20450;-63
2023/07/29 01:29:57;;;;;;;1014.97;905.27;;;17.60;99.90;;;;;;4978366;28;20444;-63
2023/07/29 01:32:30;;;;;;;1012.30;902.93;;;17.60;99.90;;;;;;4980752;28;20459;-63
2023/07/29 01:35:01;;;;;;;1013.00;904.20;;;17.60;99.90;;;;;;4985364;28;20449;-63
2023/07/29 01:37:33;;;;;;;1015.80;906.60;;;17.70;99.90;;;;;;4983374;28;20448;-62
2023/07/29 01:40:02;;;;;;;1010.87;901.17;;;17.70;99.90;;;;;;4978476;28;20480;-63
2023/07/29 01:42:32;;;;;;;1009.70;901.20;;;17.70;99.90;;;;;;4982339;28;20541;-63
2023/07/29 01:44:58;;;;;;;1008.97;900.80;;;17.70;99.90;;;;;;4985210;28;20524;-63
2023/07/29 01:47:26;;;;;;;1012.27;902.70;;;17.80;99.90;;;;;;4979161;28;20867;-63
2023/07/29 01:49:52;;;;;;;1003.37;894.77;;;17.80;99.90;;;;;;4988838;28;20454;-63
2023/07/29 01:52:19;;;;;;;998.57;891.00;;;17.80;99.90;;;;;;4975561;28;20578;-62
2023/07/29 01:54:46;;;;;;;999.37;893.17;;;17.90;99.90;;;;;;4978514;28;20458;-62
2023/07/29 01:57:14;;;;;;;1049.37;939.17;;;17.90;99.90;;;;;;4992929;28;20458;-62
2023/07/29 01:59:41;;;;;;;1067.50;956.93;;;17.90;99.90;;;;;;4981834;28;20561;-62
2023/07/29 02:02:08;;;;;;;1118.37;999.90;;;17.90;99.90;;;;;;4983220;28;20459;-62
2023/07/29 02:04:35;;;;;;;1151.90;999.90;;;18.00;99.90;;;;;;4982243;28;20455;-62
2023/07/29 02:07:01;;;;;;;1148.43;999.90;;;18.00;99.90;;;;;;4982535;28;20485;-62
2023/07/29 02:09:29;;;;;;;1208.63;999.90;;;18.00;99.90;;;;;;4978762;28;20534;-62
2023/07/29 02:11:56;;;;;;;1208.87;999.90;;;18.00;99.90;;;;;;4978928;28;20478;-62
2023/07/29 02:14:24;;;;;;;1252.03;999.90;;;18.00;99.90;;;;;;4988936;28;20454;-62
2023/07/29 02:16:51;;;;;;;1248.53;999.90;;;18.00;99.90;;;;;;4987112;28;20489;-62
2023/07/29 02:19:18;;;;;;;1241.17;999.90;;;18.10;99.90;;;;;;4980228;28;20454;-62
2023/07/29 02:21:45;;;;;;;1235.80;999.90;;;18.10;99.90;;;;;;4982393;28;20479;-62
2023/07/29 02:24:12;;;;;;;1228.70;999.90;;;18.10;99.90;;;;;;4990735;28;20458;-62
2023/07/29 02:26:39;;;;;;;1225.37;999.90;;;18.20;99.90;;;;;;4976588;28;20967;-62
2023/07/29 02:29:05;;;;;;;1222.13;999.90;;;18.20;99.90;;;;;;4984447;28;20493;-62
2023/07/29 02:31:36;;;;;;;1222.67;999.90;;;18.20;99.90;;;;;;4982208;28;20452;-62
2023/07/29 02:34:03;;;;;;;1221.47;999.90;;;18.30;99.90;;;;;;4977599;28;20496;-62
2023/07/29 02:36:30;;;;;;;1212.90;999.90;;;18.20;99.90;;;;;;4992562;28;20540;-62
2023/07/29 02:38:57;;;;;;;1214.77;999.90;;;18.30;99.90;;;;;;4984269;28;20454;-62
2023/07/29 02:41:24;;;;;;;1215.93;999.90;;;18.30;99.90;;;;;;4979738;28;20855;-62
2023/07/29 02:43:51;;;;;;;1249.23;999.90;;;18.30;99.90;;;;;;4985408;28;20454;-62
2023/07/29 02:46:18;;;;;;;1241.03;999.90;;;18.30;99.90;;;;;;4978472;28;20871;-62
2023/07/29 02:48:47;;;;;;;1231.50;999.90;;;18.30;99.90;;;;;;4975165;28;20455;-62
2023/07/29 02:51:13;;;;;;;1228.30;999.90;;;18.30;99.90;;;;;;4975273;28;20454;-61
2023/07/29 02:53:40;;;;;;;1230.70;999.90;;;18.30;99.90;;;;;;4981960;28;20450;-61
2023/07/29 02:56:09;;;;;;;1240.57;999.90;;;18.30;99.90;;;;;;4975597;28;20455;-62
2023/07/29 02:58:36;;;;;;;1241.13;999.90;;;18.20;99.90;;;;;;4991515;28;20516;-62
2023/07/29 03:01:03;;;;;;;1243.40;999.90;;;18.20;99.90;;;;;;4985356;28;20568;-62
2023/07/29 03:03:30;;;;;;;1241.73;999.90;;;18.20;99.90;;;;;;4991744;28;20459;-62
2023/07/29 03:06:03;;;;;;;1227.07;999.90;;;18.20;99.90;;;;;;4987126;28;20534;-61
2023/07/29 03:08:30;;;;;;;1225.30;999.90;;;18.30;99.90;;;;;;4982948;28;20461;-62
2023/07/29 03:10:57;;;;;;;1220.77;999.90;;;18.20;99.90;;;;;;4984101;28;20457;-62
2023/07/29 03:13:24;;;;;;;1231.90;999.90;;;18.30;99.90;;;;;;4991053;28;20457;-62
2023/07/29 03:15:51;;;;;;;1221.87;999.90;;;18.30;99.90;;;;;;4975909;28;20458;-62
2023/07/29 03:18:18;;;;;;;1219.50;999.90;;;18.30;99.90;;;;;;4974809;28;20455;-62
2023/07/29 03:20:45;;;;;;;1213.13;999.90;;;18.30;99.90;;;;;;4982505;28;20497;-62
2023/07/29 03:23:13;;;;;;;1212.93;999.90;;;18.30;99.90;;;;;;4977694;28;20454;-62
2023/07/29 03:25:39;;;;;;;1218.20;999.90;;;18.30;99.90;;;;;;4993077;28;20460;-62
2023/07/29 03:28:06;;;;;;;1224.07;999.90;;;18.30;99.90;;;;;;4989413;28;20454;-63
2023/07/29 03:30:33;;;;;;;1214.10;999.90;;;18.30;99.90;;;;;;4973626;28;20447;-63
2023/07/29 03:33:00;;;;;;;1208.97;999.90;;;18.30;99.90;;;;;;4975748;28;20458;-63
2023/07/29 03:35:27;;;;;;;1215.37;999.90;;;18.30;99.90;;;;;;4992599;28;20542;-63
2023/07/29 03:37:53;;;;;;;1210.90;999.90;;;18.30;99.90;;;;;;4992670;28;20458;-63
2023/07/29 03:40:22;;;;;;;1203.00;999.90;;;18.30;99.90;;;;;;4992532;28;20481;-63
2023/07/29 03:42:49;;;;;;;1209.67;999.90;;;18.20;99.90;;;;;;4993055;28;20818;-63
2023/07/29 03:45:16;;;;;;;1211.67;999.90;;;18.20;99.90;;;;;;4978787;28;20461;-63
2023/07/29 03:47:43;;;;;;;1207.73;999.90;;;18.20;99.90;;;;;;4992826;28;20453;-64
2023/07/29 03:50:10;;;;;;;1207.00;999.90;;;18.20;99.90;;;;;;4978539;28;20459;-63
2023/07/29 03:52:37;;;;;;;1215.30;999.90;;;18.20;99.90;;;;;;4973622;28;20466;-63
2023/07/29 03:55:04;;;;;;;1206.87;999.90;;;18.10;99.90;;;;;;4973521;28;20455;-63
2023/07/29 03:57:33;;;;;;;1215.83;999.90;;;18.10;99.90;;;;;;4974340;28;20825;-63
2023/07/29 03:59:59;;;;;;;1214.07;999.90;;;18.10;99.90;;;;;;4988579;28;20462;-63
2023/07/29 04:02:26;;;;;;;1188.63;999.90;;;18.10;99.90;;;;;;4992884;28;20458;-63
2023/07/29 04:04:53;;;;;;;1193.33;999.90;;;18.00;99.90;;;;;;4991221;28;20462;-63
2023/07/29 04:07:20;;;;;;;1187.17;999.90;;;18.00;99.90;;;;;;4974281;28;20550;-63
2023/07/29 04:09:47;;;;;;;1189.37;999.90;;;17.90;99.90;;;;;;4973921;28;20451;-63
2023/07/29 04:12:14;;;;;;;1204.10;999.90;;;17.90;99.90;;;;;;4982993;28;20937;-63
2023/07/29 04:14:42;;;;;;;1207.40;999.90;;;17.80;99.90;;;;;;4976229;28;20542;-63
2023/07/29 04:17:09;;;;;;;1215.10;999.90;;;17.80;99.90;;;;;;4981050;28;20457;-63
2023/07/29 04:19:36;;;;;;;1211.47;999.90;;;17.80;99.90;;;;;;4995664;28;20462;-62
2023/07/29 04:22:03;;;;;;;1213.80;999.90;;;17.80;99.90;;;;;;4996144;28;20536;-63
2023/07/29 04:24:30;;;;;;;1203.77;999.90;;;17.80;99.90;;;;;;4995679;28;20461;-62
2023/07/29 04:26:57;;;;;;;1214.50;999.90;;;17.80;99.90;;;;;;4995468;28;20458;-63
2023/07/29 04:29:23;;;;;;;1208.93;999.90;;;17.80;99.90;;;;;;4995413;28;20454;-63
2023/07/29 04:31:52;;;;;;;1209.73;999.90;;;17.90;99.90;;;;;;4994573;28;20446;-63
2023/07/29 04:34:19;;;;;;;1206.87;999.90;;;17.80;99.90;;;;;;4986873;28;20462;-63
2023/07/29 04:36:47;;;;;;;1208.47;999.90;;;17.80;99.90;;;;;;4978907;28;20455;-63
2023/07/29 04:39:14;;;;;;;1197.47;999.90;;;17.80;99.90;;;;;;4979773;28;20569;-63
2023/07/29 04:41:40;;;;;;;1193.80;999.90;;;17.80;99.90;;;;;;4986210;28;20478;-64
2023/07/29 04:44:07;;;;;;;1185.73;999.90;;;17.90;99.90;;;;;;4995499;28;20454;-63
2023/07/29 04:46:34;;;;;;;1175.87;999.90;;;17.90;99.90;;;;;;4995455;28;20549;-63
2023/07/29 04:49:03;;;;;;;1163.63;999.90;;;18.00;99.90;;;;;;4991198;28;20958;-63
2023/07/29 04:51:31;;;;;;;1149.00;999.90;;;18.00;99.90;;;;;;4979451;28;20455;-62
2023/07/29 04:53:58;;;;;;;1126.90;999.90;;;18.10;99.90;;;;;;4980012;28;20450;-63
2023/07/29 04:56:25;;;;;;;1107.90;999.90;;;18.10;99.90;;;;;;4979515;28;20451;-62
2023/07/29 04:58:52;;;;;;;1077.30;976.30;;;18.10;99.90;;;;;;4992736;28;20533;-63
2023/07/29 05:01:19;;;;;;;1026.23;929.03;;;18.20;99.90;;;;;;4994298;28;20566;-63
2023/07/29 05:03:46;;;;;;;1012.23;916.73;;;18.20;99.90;;;;;;4994557;28;20600;-63
2023/07/29 05:06:14;;;;;;;1003.20;908.10;;;18.20;99.90;;;;;;4995004;28;20533;-62
2023/07/29 05:08:43;;;;;;;1001.73;906.17;;;18.20;99.90;;;;;;4994879;28;20961;-63
2023/07/29 05:11:10;;;;;;;974.90;882.10;;;18.20;99.90;;;;;;4993297;28;20501;-63
2023/07/29 05:13:37;;;;;;;981.20;888.20;;;18.30;99.90;;;;;;4994728;28;20508;-62
2023/07/29 05:16:04;;;;;;;975.63;883.43;;;18.30;99.90;;;;;;4994033;28;20461;-63
2023/07/29 05:18:31;;;;;;;955.57;865.17;;;18.30;99.90;;;;;;4994542;28;20461;-63
2023/07/29 05:20:58;;;;;;;943.50;852.80;;;18.40;99.90;;;;;;4994432;28;20484;-63
2023/07/29 05:23:26;;;;;;;949.40;859.80;;;18.40;99.90;;;;;;4992921;28;20461;-63
2023/07/29 05:25:53;;;;;;;926.60;838.67;;;18.40;99.90;;;;;;4975421;28;20470;-63
2023/07/29 05:28:20;;;;;;;924.50;836.07;;;18.40;99.90;;;;;;4974864;28;20467;-62
2023/07/29 05:30:47;;;;;;;924.83;836.13;;;18.30;99.90;;;;;;4974824;28;20455;-64
2023/07/29 05:33:13;;;;;;;915.90;828.60;;;18.40;99.90;;;;;;4974645;28;20463;-64
2023/07/29 05:35:40;;;;;;;905.53;819.80;;;18.40;99.90;;;;;;4974828;28;20478;-64
2023/07/29 05:38:08;;;;;;;905.47;819.50;;;18.40;99.90;;;;;;4981572;28;20457;-64
2023/07/29 05:40:37;;;;;;;910.03;822.57;;;18.40;99.90;;;;;;4990786;28;20450;-64
2023/07/29 05:43:04;;;;;;;904.97;820.20;;;18.40;99.90;;;;;;4989512;28;20456;-64
2023/07/29 05:45:31;;;;;;;904.30;822.80;;;18.40;99.90;;;;;;4987598;28;20448;-63
2023/07/29 05:47:58;;;;;;;906.30;826.10;;;18.40;99.90;;;;;;4994328;28;20786;-63
2023/07/29 05:50:25;;;;;;;887.77;810.57;;;18.40;99.90;;;;;;4994171;28;20456;-63
2023/07/29 05:52:52;;;;;;;892.53;818.03;;;18.40;99.90;;;;;;4994399;28;20454;-63
2023/07/29 05:55:19;;;;;;;882.70;807.10;;;18.40;99.90;;;;;;4994022;28;21114;-62
2023/07/29 05:57:47;;;;;;;882.30;808.30;;;18.40;99.90;;;;;;4992621;28;20509;-62
2023/07/29 06:00:14;;;;;;;876.97;803.20;;;18.40;99.90;;;;;;4993626;28;20450;-62
2023/07/29 06:02:41;;;;;;;869.50;799.47;;;18.40;99.90;;;;;;4993460;28;20486;-62
2023/07/29 06:05:09;;;;;;;865.27;797.77;;;18.40;99.90;;;;;;4993808;28;20508;-63
2023/07/29 06:07:36;;;;;;;869.83;800.57;;;18.30;99.90;;;;;;4993409;28;20462;-63
2023/07/29 06:10:03;;;;;;;858.77;790.63;;;18.40;99.90;;;;;;4992214;28;20562;-63
2023/07/29 06:12:30;;;;;;;858.10;791.40;;;18.40;99.90;;;;;;4989928;28;20446;-63
2023/07/29 06:14:58;;;;;;;854.97;788.37;;;18.40;99.90;;;;;;4983652;28;20481;-63
2023/07/29 06:17:25;;;;;;;863.80;797.70;;;18.40;99.90;;;;;;4978352;28;20451;-62
2023/07/29 06:19:52;;;;;;;861.03;798.67;;;18.50;99.90;;;;;;4975246;28;20969;-62
2023/07/29 06:22:19;;;;;;;851.40;790.17;;;18.50;99.90;;;;;;4973423;28;20559;-62
2023/07/29 06:24:45;;;;;;;839.73;783.37;;;18.50;99.90;;;;;;4974253;28;20817;-62
2023/07/29 06:27:12;;;;;;;812.83;761.53;;;18.50;99.90;;;;;;4974092;28;20463;-63
2023/07/29 06:29:39;;;;;;;782.77;737.67;;;18.50;99.90;;;;;;4973567;28;20469;-63
2023/07/29 06:32:08;;;;;;;703.40;669.67;;;18.40;99.90;;;;;;4974236;28;20455;-63
2023/07/29 06:34:35;;;;;;;764.43;723.33;;;18.40;99.90;;;;;;4973926;28;20466;-62
2023/07/29 06:37:02;;;;;;;774.30;731.33;;;18.40;99.90;;;;;;4973654;28;20459;-63
2023/07/29 06:39:29;;;;;;;806.10;759.17;;;18.40;99.90;;;;;;4972956;28;20458;-62
2023/07/29 06:41:55;;;;;;;785.90;741.70;;;18.40;99.90;;;;;;4974077;28;20479;-62
2023/07/29 06:44:22;;;;;;;782.73;738.53;;;18.50;99.90;;;;;;4973842;28;20455;-63
2023/07/29 06:46:49;;;;;;;811.50;763.30;;;18.60;99.90;;;;;;4988160;28;20477;-62
2023/07/29 06:49:17;;;;;;;780.67;737.67;;;18.70;99.90;;;;;;4989225;28;20814;-62
2023/07/29 06:51:44;;;;;;;758.80;718.80;;;18.80;99.90;;;;;;4978871;28;20447;-63
2023/07/29 06:54:11;;;;;;;691.53;660.13;;;19.10;99.90;;;;;;4993412;28;20484;-62
2023/07/29 06:56:38;;;;;;;536.93;516.83;;;19.40;99.90;;;;;;4993215;28;20480;-63
2023/07/29 06:59:05;;;;;;;437.87;422.97;;;19.50;99.90;;;;;;4992461;28;20926;-63
2023/07/29 07:01:32;;;;;;;192.97;186.53;;;19.70;99.90;;;;;;4992891;28;20478;-63
2023/07/29 07:03:58;;;;;;;253.07;245.23;;;19.70;99.90;;;;;;4980200;28;20485;-65
2023/07/29 07:06:27;;;;;;;153.60;148.47;;;19.80;99.90;;;;;;4988577;28;20943;-63
2023/07/29 07:08:54;;;;;;;51.90;49.60;;;19.90;99.90;;;;;;4993151;28;20474;-63
2023/07/29 07:11:21;;;;;;;101.70;97.93;;;20.00;99.90;;;;;;4992295;28;20536;-63
2023/07/29 07:13:48;;;;;;;63.00;59.50;;;20.20;99.90;;;;;;4991502;28;20528;-63
2023/07/29 07:16:15;;;;;;;55.57;53.43;;;20.70;99.90;;;;;;4990783;28;20524;-65
2023/07/29 07:18:42;;;;;;;6.43;3.43;;;21.20;99.90;;;;;;4991502;28;20517;-64
2023/07/29 07:21:09;;;;;;;14.00;13.10;;;21.20;99.90;;;;;;4991932;28;20481;-63
2023/07/29 07:23:37;;;;;;;5.13;4.37;;;21.70;99.90;;;;;;4990768;28;20953;-63
2023/07/29 07:26:04;;;;;;;7.37;5.50;;;22.00;99.90;;;;;;4991558;28;20464;-63
2023/07/29 07:28:31;;;;;;;4.70;2.50;;;22.30;99.90;;;;;;4992152;28;20467;-63
2023/07/29 07:30:57;;;;;;;6.77;2.13;;;22.60;99.90;;;;;;4991896;28;20462;-63
2023/07/29 07:33:24;;;;;;;5.30;2.23;;;23.00;99.70;;;;;;4980847;28;20465;-63
2023/07/29 07:35:51;;;;;;;6.30;2.40;;;23.20;98.20;;;;;;4973588;28;20529;-64
2023/07/29 07:38:18;;;;;;;6.07;1.80;;;23.20;96.40;;;;;;4973252;28;20494;-64
2023/07/29 07:40:55;;;;;;;5.47;1.63;;;22.50;94.30;;;;;;4972913;28;20463;-63
2023/07/29 07:43:22;;;;;;;4.77;1.50;;;22.00;95.90;;;;;;4973085;28;20482;-63
2023/07/29 07:45:49;;;;;;;8.83;2.00;;;21.90;95.90;;;;;;4985382;28;20459;-63
2023/07/29 07:48:17;;;;;;;4.70;1.90;;;21.90;97.10;;;;;;4992127;28;20462;-63
2023/07/29 07:50:44;;;;;;;10.37;2.20;;;21.90;95.90;;;;;;4994320;28;20516;-64
2023/07/29 07:53:12;;;;;;;5.40;1.80;;;21.50;95.70;;;;;;4995321;28;20451;-63
2023/07/29 07:55:39;;;;;;;6.90;1.73;;;21.30;95.70;;;;;;4996106;28;20461;-68
2023/07/29 07:58:07;;;;;;;5.27;2.00;;;21.40;96.30;;;;;;4996097;28;20549;-68
2023/07/29 08:00:34;;;;;;;4.40;1.50;;;21.30;95.70;;;;;;4996076;28;20543;-68
2023/07/29 08:03:01;;;;;;;6.00;1.70;;;21.30;95.60;;;;;;4996053;28;20478;-69
2023/07/29 08:05:28;;;;;;;7.40;1.90;;;21.60;95.80;;;;;;4996065;28;20832;-68
2023/07/29 08:07:54;;;;;;;4.20;1.40;;;21.80;95.90;;;;;;4995988;28;20461;-68
2023/07/29 08:10:21;;;;;;;5.90;1.90;;;22.00;95.90;;;;;;4995689;28;21009;-68
2023/07/29 08:12:48;;;;;;;4.83;1.90;;;22.30;94.80;;;;;;4995698;28;20462;-71
2023/07/29 08:15:16;;;;;;;5.17;1.60;;;22.80;92.80;;;;;;4996026;28;20545;-70
2023/07/29 08:17:43;;;;;;;6.23;1.87;;;23.30;93.00;;;;;;4995763;28;20465;-70
2023/07/29 08:20:11;;;;;;;4.83;1.20;;;23.90;91.10;;;;;;4995520;28;20504;-70
2023/07/29 08:22:37;;;;;;;4.93;1.70;;;24.20;82.10;;;;;;4995702;28;20898;-69
2023/07/29 08:25:05;;;;;;;4.80;1.47;;;24.20;75.30;;;;;;4995609;28;20462;-68
2023/07/29 08:27:34;;;;;;;4.60;1.40;;;24.10;81.90;;;;;;4995821;28;20481;-68
2023/07/29 08:30:00;;;;;;;6.40;1.20;;;24.20;81.80;;;;;;4995213;28;20485;-68
2023/07/29 08:32:28;;;;;;;4.40;1.37;;;23.80;81.60;;;;;;4995591;28;20458;-68
2023/07/29 08:34:55;;;;;;;4.17;1.27;;;23.80;73.70;;;;;;4995372;28;20455;-68
2023/07/29 08:37:22;;;;;;;5.43;1.60;;;23.80;77.60;;;;;;4995511;28;20454;-69
2023/07/29 08:39:49;;;;;;;5.03;1.27;;;23.60;73.40;;;;;;4994974;28;20458;-68
2023/07/29 08:42:20;;;;;;;4.47;1.20;;;23.50;76.40;;;;;;4995559;28;20482;-68
2023/07/29 08:44:49;;;;;;;4.07;1.23;;;23.20;75.80;;;;;;4995607;28;20458;-68
2023/07/29 08:47:16;;;;;;;8.80;1.50;;;22.90;74.90;;;;;;4995397;28;20461;-68
2023/07/29 08:49:45;;;;;;;4.73;1.53;;;23.00;76.00;;;;;;4995051;28;20807;-68
2023/07/29 08:52:13;;;;;;;4.30;1.37;;;22.90;73.90;;;;;;4995130;28;20450;-68
2023/07/29 08:54:40;;;;;;;5.60;1.20;;;23.10;81.00;;;;;;4995034;28;20501;-68
2023/07/29 08:57:07;;;;;;;3.87;1.00;;;23.20;79.90;;;;;;4995049;28;20457;-68
2023/07/29 08:59:34;;;;;;;4.83;1.37;;;23.10;74.50;;;;;;4994763;28;20490;-68
2023/07/29 09:02:01;;;;;;;6.20;1.87;;;23.40;81.30;;;;;;4994156;28;20484;-68
2023/07/29 09:04:28;;;;;;;4.33;1.43;;;23.30;73.10;;;;;;4994845;28;20968;-68
2023/07/29 09:06:57;;;;;;;4.60;1.40;;;23.60;77.50;;;;;;4994835;28;20466;-68
2023/07/29 09:09:24;;;;;;;4.83;1.50;;;24.30;74.90;;;;;;4994757;28;20517;-68
2023/07/29 09:11:51;;;;;;;8.03;1.50;;;24.90;74.60;;;;;;4994875;28;20545;-68
2023/07/29 09:14:18;;;;;;;4.70;1.27;;;25.20;66.60;;;;;;4994807;28;20481;-68
2023/07/29 09:16:46;;;;;;;5.87;1.60;;;25.10;57.90;;;;;;4994767;28;20462;-68
2023/07/29 09:19:13;;;;;;;5.80;2.17;;;24.80;57.70;;;;;;4994393;28;20985;-69
2023/07/29 09:21:41;;;;;;;5.93;1.60;;;24.50;55.10;;;;;;4994264;28;20480;-69
2023/07/29 09:24:10;;;;;;;4.67;1.50;;;24.40;57.30;;;;;;4994491;28;20450;-69
2023/07/29 09:26:37;;;;;;;4.63;1.43;;;24.70;55.30;;;;;;4994565;28;20485;-69
2023/07/29 09:29:04;;;;;;;5.40;1.37;;;24.70;55.00;;;;;;4994434;28;20862;-68
2023/07/29 09:31:31;;;;;;;4.63;1.37;;;24.90;50.80;;;;;;4994317;28;20450;-69
2023/07/29 09:33:59;;;;;;;5.00;1.87;;;24.80;48.80;;;;;;4994118;28;20454;-68
2023/07/29 09:36:26;;;;;;;4.83;1.50;;;24.50;56.80;;;;;;4994615;28;20447;-69
2023/07/29 09:38:57;;;;;;;5.10;1.87;;;24.50;57.40;;;;;;4994101;28;20953;-68
2023/07/29 09:41:26;;;;;;;6.10;1.70;;;24.50;57.40;;;;;;4994136;28;20476;-69
2023/07/29 09:43:58;;;;;;;5.50;2.23;;;24.40;53.50;;;;;;4994095;28;20489;-68
2023/07/29 09:46:26;;;;;;;4.40;1.40;;;24.20;57.00;;;;;;4994051;28;20459;-68
2023/07/29 09:48:56;;;;;;;4.20;1.40;;;24.20;57.20;;;;;;4994423;28;20450;-69
2023/07/29 09:51:23;;;;;;;4.97;1.80;;;23.80;56.80;;;;;;4993968;28;20803;-68
2023/07/29 09:53:52;;;;;;;6.23;1.70;;;23.80;58.60;;;;;;4994031;28;20455;-68
2023/07/29 09:56:24;;;;;;;5.70;1.67;;;23.90;61.30;;;;;;4994010;28;20483;-68
2023/07/29 09:58:53;;;;;;;4.73;1.50;;;23.70;56.80;;;;;;4993752;28;20458;-68
2023/07/29 10:01:20;;;;;;;5.67;2.00;;;23.40;56.40;;;;;;4993665;28;20455;-68
2023/07/29 10:03:48;;;;;;;6.80;2.40;;;23.40;60.60;;;;;;4993906;28;20573;-68
2023/07/29 10:06:15;;;;;;;7.40;2.90;;;23.50;57.80;;;;;;4993931;28;20486;-68
2023/07/29 10:08:44;;;;;;;5.03;1.57;;;23.80;60.50;;;;;;4993782;28;20505;-67
2023/07/29 10:11:12;;;;;;;6.50;2.67;;;24.20;57.20;;;;;;4993550;28;20458;-68
2023/07/29 10:13:39;;;;;;;7.20;1.80;;;24.20;57.20;;;;;;4993424;28;20516;-68
2023/07/29 10:16:07;;;;;;;4.80;1.70;;;24.20;57.20;;;;;;4993789;28;20968;-67
2023/07/29 10:18:35;;;;;;;8.10;2.00;;;24.20;57.20;;;;;;4993689;28;20454;-67
2023/07/29 10:21:03;;;;;;;4.40;1.63;;;24.30;57.20;;;;;;4993385;28;20551;-68
2023/07/29 10:23:35;;;;;;;8.97;2.10;;;24.60;57.50;;;;;;4993465;28;20556;-68
2023/07/29 10:26:04;;;;;;;5.00;1.60;;;24.60;55.00;;;;;;4987770;28;20481;-66
2023/07/29 10:28:32;;;;;;;4.90;1.40;;;24.70;57.70;;;;;;4982709;28;20459;-67
2023/07/29 10:31:00;;;;;;;5.10;1.87;;;23.90;56.90;;;;;;4980158;28;20459;-68
2023/07/29 10:33:28;;;;;;;4.37;1.63;;;23.50;64.90;;;;;;4976583;28;20455;-67
2023/07/29 10:35:55;;;;;;;4.53;1.60;;;23.10;64.70;;;;;;4979687;28;20451;-66
2023/07/29 10:38:24;;;;;;;5.50;1.80;;;22.90;64.50;;;;;;4993245;28;20549;-65
2023/07/29 10:40:52;;;;;;;7.43;1.60;;;23.00;65.40;;;;;;4987551;28;20459;-64
2023/07/29 10:43:24;;;;;;;5.33;1.80;;;23.60;65.10;;;;;;4973876;28;20853;-64
2023/07/29 10:45:51;;;;;;;5.40;1.77;;;24.20;57.40;;;;;;4985739;28;20461;-65
2023/07/29 10:48:44;;;;;;;4.63;1.60;;;24.90;57.80;;;;;;4992547;28;20462;-65
2023/07/29 10:51:30;;;;;;;6.00;1.70;;;26.00;54.30;;;;;;4979457;28;20546;-67
2023/07/29 10:53:58;;;;;;;7.40;1.97;;;27.30;50.70;;;;;;4987783;28;20545;-66
2023/07/29 10:56:30;;;;;;;6.10;2.13;;;27.50;41.70;;;;;;4992244;28;20458;-65
2023/07/29 10:58:58;;;;;;;5.13;1.80;;;28.20;33.00;;;;;;4991507;28;20456;-65
2023/07/29 11:01:29;;;;;;;5.60;1.83;;;29.10;33.60;;;;;;4992704;28;20462;-65
2023/07/29 11:04:24;;;;;;;12.13;2.23;;;29.90;26.00;;;;;;4987211;28;20475;-65
2023/07/29 11:07:26;;;;;;;5.73;1.60;;;29.40;25.70;;;;;;4981411;28;20463;-66
2023/07/29 11:09:58;;;;;;;6.17;1.93;;;29.10;20.10;;;;;;4974610;28;20458;-65
2023/07/29 11:12:36;;;;;;;4.70;1.63;;;28.10;23.00;;;;;;4974500;28;20455;-65
2023/07/29 11:15:05;;;;;;;12.80;2.73;;;27.30;24.60;;;;;;4976435;28;20452;-66
2023/07/29 11:17:35;;;;;;;5.93;1.60;;;26.50;31.70;;;;;;4981198;28;20448;-66
2023/07/29 11:20:04;;;;;;;5.47;2.07;;;26.50;36.20;;;;;;4974457;28;20855;-67
2023/07/29 11:22:32;;;;;;;7.30;2.07;;;27.00;32.10;;;;;;4974397;28;20463;-68
2023/07/29 11:24:58;;;;;;;5.60;2.00;;;27.50;32.50;;;;;;4975045;28;20462;-68
2023/07/29 11:27:25;;;;;;;5.07;2.00;;;27.70;32.20;;;;;;4992500;28;20942;-67
2023/07/29 11:29:57;;;;;;;7.90;1.70;;;28.40;25.20;;;;;;4997713;28;20460;-68
2023/07/29 11:32:25;;;;;;;5.50;1.60;;;28.40;22.40;;;;;;4998045;28;20448;-67
2023/07/29 11:34:52;;;;;;;5.30;2.00;;;27.90;23.80;;;;;;4996950;28;20828;-67
2023/07/29 11:37:21;;;;;;;5.43;2.00;;;27.10;24.40;;;;;;4997044;28;20458;-68
2023/07/29 11:39:48;;;;;;;5.93;1.80;;;26.50;24.10;;;;;;4997944;28;20824;-67
2023/07/29 11:42:16;;;;;;;5.10;2.20;;;27.50;27.60;;;;;;4997941;28;20460;-67
2023/07/29 11:44:43;;;;;;;5.47;1.80;;;28.30;19.50;;;;;;4996897;28;20491;-68
2023/07/29 11:47:10;;;;;;;6.70;2.00;;;29.10;18.00;;;;;;4997062;28;20454;-68
2023/07/29 11:49:40;;;;;;;5.00;1.50;;;29.00;14.20;;;;;;4997420;28;20488;-68
2023/07/29 11:52:08;;;;;;;6.60;2.10;;;29.90;13.20;;;;;;4997615;28;20789;-68
2023/07/29 11:54:37;;;;;;;4.73;1.50;;;29.60;10.70;;;;;;4996907;28;20458;-67
2023/07/29 11:57:06;;;;;;;8.43;2.20;;;30.80;11.30;;;;;;4996662;28;20457;-68
2023/07/29 11:59:34;;;;;;;4.83;1.43;;;31.40;5.70;;;;;;4997026;28;20457;-68
2023/07/29 12:02:02;;;;;;;5.20;1.50;;;30.80;3.40;;;;;;4997344;28;20457;-67
2023/07/29 12:04:30;;;;;;;5.03;1.80;;;29.80;2.90;;;;;;4996132;28;21048;-67
2023/07/29 12:06:57;;;;;;;6.70;2.13;;;30.10;5.90;;;;;;4996521;28;20813;-68
2023/07/29 12:09:24;;;;;;;7.63;2.30;;;29.30;5.10;;;;;;4997152;28;20810;-68
2023/07/29 12:11:53;;;;;;;5.87;2.10;;;29.10;8.90;;;;;;4996850;28;20493;-66
2023/07/29 12:14:19;;;;;;;7.63;2.40;;;29.60;10.60;;;;;;4996172;28;20458;-66
2023/07/29 12:16:51;;;;;;;8.87;2.47;;;30.00;9.50;;;;;;4988376;28;20462;-68
2023/07/29 12:19:18;;;;;;;6.90;2.53;;;30.20;5.80;;;;;;4977128;28;20994;-67
2023/07/29 12:21:46;;;;;;;8.87;1.80;;;30.70;3.40;;;;;;4977590;28;20463;-67
2023/07/29 12:24:14;;;;;;;5.00;1.67;;;31.50;3.80;;;;;;4992615;28;20569;-66